sensor_id;sensor_type;location;lat;lon;timestamp;temperature;humidity
41435;DHT22;27177;22.262;114.192;2022-09-06T00:00:54;27.80;99.90
41435;DHT22;27177;22.262;114.192;2022-09-06T00:03:21;27.80;99.90
41435;DHT22;27177;22.262;114.192;2022-09-06T00:05:48;27.90;99.90
41435;DHT22;27177;22.262;114.192;2022-09-06T00:08:16;28.00;99.90
41435;DHT22;27177;22.262;114.192;2022-09-06T00:10:42;28.20;99.90
41435;DHT22;27177;22.262;114.192;2022-09-06T00:13:10;28.30;99.90
41435;DHT22;27177;22.262;114.192;2022-09-06T00:15:38;28.40;99.20
41435;DHT22;27177;22.262;114.192;2022-09-06T00:18:06;28.50;98.40
41435;DHT22;27177;22.262;114.192;2022-09-06T00:20:34;28.60;99.00
41435;DHT22;27177;22.262;114.192;2022-09-06T00:23:06;28.70;99.90
41435;DHT22;27177;22.262;114.192;2022-09-06T00:25:33;28.80;99.20
41435;DHT22;27177;22.262;114.192;2022-09-06T00:28:03;28.80;98.80
41435;DHT22;27177;22.262;114.192;2022-09-06T00:30:30;28.90;98.70
41435;DHT22;27177;22.262;114.192;2022-09-06T00:32:58;28.90;99.60
41435;DHT22;27177;22.262;114.192;2022-09-06T00:35:25;28.90;97.70
41435;DHT22;27177;22.262;114.192;2022-09-06T00:37:59;29.00;98.10
41435;DHT22;27177;22.262;114.192;2022-09-06T00:40:28;29.10;98.00
41435;DHT22;27177;22.262;114.192;2022-09-06T00:42:56;29.10;97.90
41435;DHT22;27177;22.262;114.192;2022-09-06T00:45:24;29.10;98.20
41435;DHT22;27177;22.262;114.192;2022-09-06T00:47:52;29.10;97.50
41435;DHT22;27177;22.262;114.192;2022-09-06T00:50:19;29.10;97.70
41435;DHT22;27177;22.262;114.192;2022-09-06T00:52:47;29.10;97.70
41435;DHT22;27177;22.262;114.192;2022-09-06T00:55:17;29.20;97.60
41435;DHT22;27177;22.262;114.192;2022-09-06T00:57:45;29.20;97.40
41435;DHT22;27177;22.262;114.192;2022-09-06T01:00:17;29.30;97.20
41435;DHT22;27177;22.262;114.192;2022-09-06T01:02:45;29.40;97.10
41435;DHT22;27177;22.262;114.192;2022-09-06T01:05:13;29.50;97.20
41435;DHT22;27177;22.262;114.192;2022-09-06T01:07:58;29.40;97.20
41435;DHT22;27177;22.262;114.192;2022-09-06T01:30:06;29.60;96.60
41435;DHT22;27177;22.262;114.192;2022-09-06T01:32:59;29.70;96.70
41435;DHT22;27177;22.262;114.192;2022-09-06T01:36:02;29.70;97.10
41435;DHT22;27177;22.262;114.192;2022-09-06T01:38:30;29.80;96.70
41435;DHT22;27177;22.262;114.192;2022-09-06T01:40:57;29.80;98.10
41435;DHT22;27177;22.262;114.192;2022-09-06T01:43:28;29.90;97.60
41435;DHT22;27177;22.262;114.192;2022-09-06T01:46:11;29.90;96.80
41435;DHT22;27177;22.262;114.192;2022-09-06T02:00:13;30.20;96.80
41435;DHT22;27177;22.262;114.192;2022-09-06T02:03:05;30.20;96.40
41435;DHT22;27177;22.262;114.192;2022-09-06T02:05:53;30.30;96.30
41435;DHT22;27177;22.262;114.192;2022-09-06T02:09:24;30.30;96.20
41435;DHT22;27177;22.262;114.192;2022-09-06T02:11:25;30.40;96.30
41435;DHT22;27177;22.262;114.192;2022-09-06T02:14:02;30.40;97.00
41435;DHT22;27177;22.262;114.192;2022-09-06T02:16:34;30.50;96.70
41435;DHT22;27177;22.262;114.192;2022-09-06T02:21:45;30.60;96.80
41435;DHT22;27177;22.262;114.192;2022-09-06T02:24:19;30.60;97.00
41435;DHT22;27177;22.262;114.192;2022-09-06T02:26:48;30.60;96.10
41435;DHT22;27177;22.262;114.192;2022-09-06T02:29:16;30.70;96.30
41435;DHT22;27177;22.262;114.192;2022-09-06T02:34:27;30.70;95.90
41435;DHT22;27177;22.262;114.192;2022-09-06T02:36:54;30.70;96.40
41435;DHT22;27177;22.262;114.192;2022-09-06T02:41:57;30.80;95.50
41435;DHT22;27177;22.262;114.192;2022-09-06T02:44:24;30.80;95.40
41435;DHT22;27177;22.262;114.192;2022-09-06T02:59:55;30.90;95.50
41435;DHT22;27177;22.262;114.192;2022-09-06T03:02:22;31.20;95.00
41435;DHT22;27177;22.262;114.192;2022-09-06T03:04:49;31.20;95.00
41435;DHT22;27177;22.262;114.192;2022-09-06T03:07:16;31.30;95.30
41435;DHT22;27177;22.262;114.192;2022-09-06T03:09:44;31.30;94.70
41435;DHT22;27177;22.262;114.192;2022-09-06T03:12:11;31.30;94.40
41435;DHT22;27177;22.262;114.192;2022-09-06T03:14:38;31.30;94.80
41435;DHT22;27177;22.262;114.192;2022-09-06T03:17:06;31.40;95.30
41435;DHT22;27177;22.262;114.192;2022-09-06T03:19:33;31.40;94.70
41435;DHT22;27177;22.262;114.192;2022-09-06T03:22:00;31.40;94.70
41435;DHT22;27177;22.262;114.192;2022-09-06T03:24:27;31.40;95.00
41435;DHT22;27177;22.262;114.192;2022-09-06T03:26:54;31.50;95.10
41435;DHT22;27177;22.262;114.192;2022-09-06T03:29:21;31.60;95.30
41435;DHT22;27177;22.262;114.192;2022-09-06T03:31:48;31.70;95.90
41435;DHT22;27177;22.262;114.192;2022-09-06T03:34:15;31.70;95.70
41435;DHT22;27177;22.262;114.192;2022-09-06T03:36:42;31.70;95.20
41435;DHT22;27177;22.262;114.192;2022-09-06T03:39:08;31.70;95.80
41435;DHT22;27177;22.262;114.192;2022-09-06T03:41:35;31.70;96.30
41435;DHT22;27177;22.262;114.192;2022-09-06T03:44:03;31.80;96.30
41435;DHT22;27177;22.262;114.192;2022-09-06T03:46:30;31.90;96.60
41435;DHT22;27177;22.262;114.192;2022-09-06T03:48:58;32.00;96.30
41435;DHT22;27177;22.262;114.192;2022-09-06T03:51:27;32.00;96.10
41435;DHT22;27177;22.262;114.192;2022-09-06T03:53:54;32.00;96.20
41435;DHT22;27177;22.262;114.192;2022-09-06T03:56:21;32.10;96.70
41435;DHT22;27177;22.262;114.192;2022-09-06T03:58:48;32.20;96.40
41435;DHT22;27177;22.262;114.192;2022-09-06T04:01:15;32.20;96.00
41435;DHT22;27177;22.262;114.192;2022-09-06T04:03:41;32.20;96.30
41435;DHT22;27177;22.262;114.192;2022-09-06T04:06:09;32.10;94.80
41435;DHT22;27177;22.262;114.192;2022-09-06T04:08:36;32.10;94.90
41435;DHT22;27177;22.262;114.192;2022-09-06T04:11:04;32.10;96.10
41435;DHT22;27177;22.262;114.192;2022-09-06T04:13:32;32.20;95.80
41435;DHT22;27177;22.262;114.192;2022-09-06T04:16:00;32.30;95.80
41435;DHT22;27177;22.262;114.192;2022-09-06T04:18:27;32.40;95.20
41435;DHT22;27177;22.262;114.192;2022-09-06T04:20:55;32.40;94.60
41435;DHT22;27177;22.262;114.192;2022-09-06T04:25:58;32.40;93.30
41435;DHT22;27177;22.262;114.192;2022-09-06T04:28:29;32.40;93.40
41435;DHT22;27177;22.262;114.192;2022-09-06T04:30:58;32.30;93.20
41435;DHT22;27177;22.262;114.192;2022-09-06T04:33:26;32.30;93.30
41435;DHT22;27177;22.262;114.192;2022-09-06T04:35:57;32.20;93.50
41435;DHT22;27177;22.262;114.192;2022-09-06T04:38:25;32.20;94.00
41435;DHT22;27177;22.262;114.192;2022-09-06T04:40:52;32.30;94.00
41435;DHT22;27177;22.262;114.192;2022-09-06T04:43:21;32.30;94.40
41435;DHT22;27177;22.262;114.192;2022-09-06T04:45:48;32.30;93.70
41435;DHT22;27177;22.262;114.192;2022-09-06T04:48:15;32.40;94.30
41435;DHT22;27177;22.262;114.192;2022-09-06T04:50:42;32.40;94.10
41435;DHT22;27177;22.262;114.192;2022-09-06T04:53:08;32.30;93.60
41435;DHT22;27177;22.262;114.192;2022-09-06T04:55:38;32.30;93.80
41435;DHT22;27177;22.262;114.192;2022-09-06T04:58:05;32.20;94.00
41435;DHT22;27177;22.262;114.192;2022-09-06T05:00:33;32.10;93.90
41435;DHT22;27177;22.262;114.192;2022-09-06T05:03:01;32.20;94.40
41435;DHT22;27177;22.262;114.192;2022-09-06T05:05:28;32.20;94.50
41435;DHT22;27177;22.262;114.192;2022-09-06T05:07:55;32.40;94.80
41435;DHT22;27177;22.262;114.192;2022-09-06T05:10:22;32.60;94.80
41435;DHT22;27177;22.262;114.192;2022-09-06T05:12:51;32.80;94.20
41435;DHT22;27177;22.262;114.192;2022-09-06T05:15:18;32.70;93.80
41435;DHT22;27177;22.262;114.192;2022-09-06T05:17:45;32.60;93.90
41435;DHT22;27177;22.262;114.192;2022-09-06T05:20:12;32.60;94.00
41435;DHT22;27177;22.262;114.192;2022-09-06T05:22:39;32.60;93.90
41435;DHT22;27177;22.262;114.192;2022-09-06T05:25:09;32.60;94.70
41435;DHT22;27177;22.262;114.192;2022-09-06T05:27:36;32.60;95.20
41435;DHT22;27177;22.262;114.192;2022-09-06T05:30:04;32.50;94.70
41435;DHT22;27177;22.262;114.192;2022-09-06T05:32:30;32.50;94.90
41435;DHT22;27177;22.262;114.192;2022-09-06T05:34:57;32.60;95.40
41435;DHT22;27177;22.262;114.192;2022-09-06T05:37:24;32.60;94.80
41435;DHT22;27177;22.262;114.192;2022-09-06T05:39:50;32.50;94.70
41435;DHT22;27177;22.262;114.192;2022-09-06T05:42:17;32.40;95.10
41435;DHT22;27177;22.262;114.192;2022-09-06T05:44:44;32.50;95.30
41435;DHT22;27177;22.262;114.192;2022-09-06T05:47:11;32.60;95.20
41435;DHT22;27177;22.262;114.192;2022-09-06T05:49:38;32.50;95.50
41435;DHT22;27177;22.262;114.192;2022-09-06T05:52:05;32.50;95.60
41435;DHT22;27177;22.262;114.192;2022-09-06T05:54:31;32.30;94.40
41435;DHT22;27177;22.262;114.192;2022-09-06T05:56:58;32.20;94.70
41435;DHT22;27177;22.262;114.192;2022-09-06T05:59:25;32.10;94.60
41435;DHT22;27177;22.262;114.192;2022-09-06T06:01:53;32.10;94.20
41435;DHT22;27177;22.262;114.192;2022-09-06T06:04:20;31.90;94.30
41435;DHT22;27177;22.262;114.192;2022-09-06T06:06:47;31.70;94.30
41435;DHT22;27177;22.262;114.192;2022-09-06T06:09:16;31.60;94.80
41435;DHT22;27177;22.262;114.192;2022-09-06T06:11:43;31.70;94.40
41435;DHT22;27177;22.262;114.192;2022-09-06T06:14:10;31.60;94.80
41435;DHT22;27177;22.262;114.192;2022-09-06T06:16:37;31.50;95.10
41435;DHT22;27177;22.262;114.192;2022-09-06T06:19:04;31.50;96.10
41435;DHT22;27177;22.262;114.192;2022-09-06T06:21:32;31.50;95.50
41435;DHT22;27177;22.262;114.192;2022-09-06T06:26:36;31.50;95.90
41435;DHT22;27177;22.262;114.192;2022-09-06T06:29:04;31.60;95.90
41435;DHT22;27177;22.262;114.192;2022-09-06T06:31:33;31.50;96.30
41435;DHT22;27177;22.262;114.192;2022-09-06T06:34:01;31.40;95.40
41435;DHT22;27177;22.262;114.192;2022-09-06T06:36:30;31.40;95.10
41435;DHT22;27177;22.262;114.192;2022-09-06T06:38:59;31.20;95.30
41435;DHT22;27177;22.262;114.192;2022-09-06T06:41:29;31.10;95.70
41435;DHT22;27177;22.262;114.192;2022-09-06T06:43:59;31.20;95.50
41435;DHT22;27177;22.262;114.192;2022-09-06T06:46:30;31.10;95.10
41435;DHT22;27177;22.262;114.192;2022-09-06T06:48:58;31.10;95.50
41435;DHT22;27177;22.262;114.192;2022-09-06T06:51:30;31.10;95.10
41435;DHT22;27177;22.262;114.192;2022-09-06T06:56:36;31.20;95.30
41435;DHT22;27177;22.262;114.192;2022-09-06T07:01:38;31.40;96.20
41435;DHT22;27177;22.262;114.192;2022-09-06T07:04:05;31.60;95.80
41435;DHT22;27177;22.262;114.192;2022-09-06T07:09:09;31.70;95.70
41435;DHT22;27177;22.262;114.192;2022-09-06T07:11:38;31.70;95.90
41435;DHT22;27177;22.262;114.192;2022-09-06T07:14:05;31.60;95.60
41435;DHT22;27177;22.262;114.192;2022-09-06T07:16:32;31.60;95.50
41435;DHT22;27177;22.262;114.192;2022-09-06T07:18:59;31.70;95.80
41435;DHT22;27177;22.262;114.192;2022-09-06T07:21:26;31.70;95.30
41435;DHT22;27177;22.262;114.192;2022-09-06T07:26:31;31.70;95.80
41435;DHT22;27177;22.262;114.192;2022-09-06T07:28:59;31.60;96.20
41435;DHT22;27177;22.262;114.192;2022-09-06T07:34:01;31.60;96.60
41435;DHT22;27177;22.262;114.192;2022-09-06T07:36:30;31.70;96.30
41435;DHT22;27177;22.262;114.192;2022-09-06T07:39:03;31.70;96.30
41435;DHT22;27177;22.262;114.192;2022-09-06T07:41:29;31.60;96.60
41435;DHT22;27177;22.262;114.192;2022-09-06T07:43:56;31.60;96.70
41435;DHT22;27177;22.262;114.192;2022-09-06T07:46:23;31.70;97.10
41435;DHT22;27177;22.262;114.192;2022-09-06T07:51:26;31.80;96.80
41435;DHT22;27177;22.262;114.192;2022-09-06T07:53:53;31.80;96.80
41435;DHT22;27177;22.262;114.192;2022-09-06T07:56:22;31.70;96.50
41435;DHT22;27177;22.262;114.192;2022-09-06T08:04:03;31.70;97.30
41435;DHT22;27177;22.262;114.192;2022-09-06T08:06:32;31.60;97.50
41435;DHT22;27177;22.262;114.192;2022-09-06T08:09:00;31.60;97.70
41435;DHT22;27177;22.262;114.192;2022-09-06T08:11:29;31.50;97.80
41435;DHT22;27177;22.262;114.192;2022-09-06T08:13:58;31.60;98.00
41435;DHT22;27177;22.262;114.192;2022-09-06T08:16:27;31.60;98.10
41435;DHT22;27177;22.262;114.192;2022-09-06T08:18:56;31.60;98.20
41435;DHT22;27177;22.262;114.192;2022-09-06T08:21:26;31.70;97.90
41435;DHT22;27177;22.262;114.192;2022-09-06T08:23:58;31.90;97.90
41435;DHT22;27177;22.262;114.192;2022-09-06T08:26:29;32.00;97.80
41435;DHT22;27177;22.262;114.192;2022-09-06T08:28:58;32.10;97.80
41435;DHT22;27177;22.262;114.192;2022-09-06T08:31:27;32.20;97.70
41435;DHT22;27177;22.262;114.192;2022-09-06T08:33:55;32.40;97.70
41435;DHT22;27177;22.262;114.192;2022-09-06T08:36:22;32.60;97.70
41435;DHT22;27177;22.262;114.192;2022-09-06T08:38:53;32.80;97.40
41435;DHT22;27177;22.262;114.192;2022-09-06T08:41:32;33.20;96.90
41435;DHT22;27177;22.262;114.192;2022-09-06T08:44:06;33.50;96.70
41435;DHT22;27177;22.262;114.192;2022-09-06T08:46:39;33.70;96.80
41435;DHT22;27177;22.262;114.192;2022-09-06T08:49:11;33.80;96.90
41435;DHT22;27177;22.262;114.192;2022-09-06T08:54:20;34.00;96.60
41435;DHT22;27177;22.262;114.192;2022-09-06T08:59:42;34.00;96.30
41435;DHT22;27177;22.262;114.192;2022-09-06T09:02:15;33.90;96.60
41435;DHT22;27177;22.262;114.192;2022-09-06T09:04:54;33.50;96.80
41435;DHT22;27177;22.262;114.192;2022-09-06T09:10:09;32.60;97.80
41435;DHT22;27177;22.262;114.192;2022-09-06T09:12:46;32.20;98.00
41435;DHT22;27177;22.262;114.192;2022-09-06T09:15:16;31.70;98.30
41435;DHT22;27177;22.262;114.192;2022-09-06T09:17:46;31.40;99.10
41435;DHT22;27177;22.262;114.192;2022-09-06T09:20:13;31.10;99.60
41435;DHT22;27177;22.262;114.192;2022-09-06T09:22:41;30.90;99.90
41435;DHT22;27177;22.262;114.192;2022-09-06T09:25:19;30.60;99.90
41435;DHT22;27177;22.262;114.192;2022-09-06T09:27:48;30.40;99.90
41435;DHT22;27177;22.262;114.192;2022-09-06T09:30:23;30.30;99.90
41435;DHT22;27177;22.262;114.192;2022-09-06T09:32:50;30.10;99.90
41435;DHT22;27177;22.262;114.192;2022-09-06T09:35:36;30.10;99.90
41435;DHT22;27177;22.262;114.192;2022-09-06T09:38:09;29.90;99.90
41435;DHT22;27177;22.262;114.192;2022-09-06T09:40:49;29.80;99.90
41435;DHT22;27177;22.262;114.192;2022-09-06T09:43:30;29.70;99.90
41435;DHT22;27177;22.262;114.192;2022-09-06T09:48:59;29.60;99.90
41435;DHT22;27177;22.262;114.192;2022-09-06T09:51:28;29.60;99.90
41435;DHT22;27177;22.262;114.192;2022-09-06T09:54:00;29.50;99.90
41435;DHT22;27177;22.262;114.192;2022-09-06T09:59:24;29.30;99.90
41435;DHT22;27177;22.262;114.192;2022-09-06T10:01:58;29.40;99.90
41435;DHT22;27177;22.262;114.192;2022-09-06T10:04:37;29.30;99.90
41435;DHT22;27177;22.262;114.192;2022-09-06T10:07:18;29.20;99.90
41435;DHT22;27177;22.262;114.192;2022-09-06T10:10:00;29.20;99.90
41435;DHT22;27177;22.262;114.192;2022-09-06T10:12:40;29.10;99.90
41435;DHT22;27177;22.262;114.192;2022-09-06T10:15:31;29.10;99.90
41435;DHT22;27177;22.262;114.192;2022-09-06T10:17:58;29.00;99.90
41435;DHT22;27177;22.262;114.192;2022-09-06T10:20:45;28.90;99.90
41435;DHT22;27177;22.262;114.192;2022-09-06T10:26:46;28.80;99.90
41435;DHT22;27177;22.262;114.192;2022-09-06T10:29:24;28.70;99.90
41435;DHT22;27177;22.262;114.192;2022-09-06T10:35:04;28.50;99.90
41435;DHT22;27177;22.262;114.192;2022-09-06T10:43:19;28.40;99.90
41435;DHT22;27177;22.262;114.192;2022-09-06T10:45:58;28.30;99.90
41435;DHT22;27177;22.262;114.192;2022-09-06T10:48:31;28.30;99.90
41435;DHT22;27177;22.262;114.192;2022-09-06T10:56:49;28.10;99.90
41435;DHT22;27177;22.262;114.192;2022-09-06T10:59:30;28.10;99.90
41435;DHT22;27177;22.262;114.192;2022-09-06T11:02:09;28.20;99.90
41435;DHT22;27177;22.262;114.192;2022-09-06T11:04:39;28.20;99.90
41435;DHT22;27177;22.262;114.192;2022-09-06T11:10:16;28.20;99.90
41435;DHT22;27177;22.262;114.192;2022-09-06T11:12:53;28.20;99.90
41435;DHT22;27177;22.262;114.192;2022-09-06T11:20:40;28.20;99.90
41435;DHT22;27177;22.262;114.192;2022-09-06T11:23:29;28.20;99.90
41435;DHT22;27177;22.262;114.192;2022-09-06T11:28:52;28.10;99.90
41435;DHT22;27177;22.262;114.192;2022-09-06T11:31:26;28.10;99.90
41435;DHT22;27177;22.262;114.192;2022-09-06T11:34:12;28.10;99.90
41435;DHT22;27177;22.262;114.192;2022-09-06T11:37:02;28.10;99.90
41435;DHT22;27177;22.262;114.192;2022-09-06T11:39:33;28.00;99.90
41435;DHT22;27177;22.262;114.192;2022-09-06T11:42:01;28.00;99.90
41435;DHT22;27177;22.262;114.192;2022-09-06T11:44:51;28.00;99.90
41435;DHT22;27177;22.262;114.192;2022-09-06T11:47:42;28.00;99.90
41435;DHT22;27177;22.262;114.192;2022-09-06T11:50:24;28.00;99.90
41435;DHT22;27177;22.262;114.192;2022-09-06T11:55:47;28.00;99.90
41435;DHT22;27177;22.262;114.192;2022-09-06T12:06:25;27.90;99.90
41435;DHT22;27177;22.262;114.192;2022-09-06T12:08:54;27.90;99.90
41435;DHT22;27177;22.262;114.192;2022-09-06T12:11:25;27.90;99.90
41435;DHT22;27177;22.262;114.192;2022-09-06T12:19:46;27.80;99.90
41435;DHT22;27177;22.262;114.192;2022-09-06T12:25:00;27.80;99.90
41435;DHT22;27177;22.262;114.192;2022-09-06T12:27:31;27.80;99.90
41435;DHT22;27177;22.262;114.192;2022-09-06T12:30:07;27.70;99.90
41435;DHT22;27177;22.262;114.192;2022-09-06T12:32:40;27.70;99.90
41435;DHT22;27177;22.262;114.192;2022-09-06T12:35:22;27.70;99.90
41435;DHT22;27177;22.262;114.192;2022-09-06T12:40:21;27.70;99.90
41435;DHT22;27177;22.262;114.192;2022-09-06T12:42:50;27.70;99.90
41435;DHT22;27177;22.262;114.192;2022-09-06T12:45:19;27.70;99.90
41435;DHT22;27177;22.262;114.192;2022-09-06T12:47:47;27.70;99.90
41435;DHT22;27177;22.262;114.192;2022-09-06T12:50:23;27.70;99.90
41435;DHT22;27177;22.262;114.192;2022-09-06T12:52:56;27.70;99.90
41435;DHT22;27177;22.262;114.192;2022-09-06T12:55:34;27.70;99.90
41435;DHT22;27177;22.262;114.192;2022-09-06T12:58:07;27.70;99.90
41435;DHT22;27177;22.262;114.192;2022-09-06T13:00:49;27.70;99.90
41435;DHT22;27177;22.262;114.192;2022-09-06T13:04:09;27.70;99.90
41435;DHT22;27177;22.262;114.192;2022-09-06T13:06:42;27.70;99.90
41435;DHT22;27177;22.262;114.192;2022-09-06T13:09:14;27.70;99.90
41435;DHT22;27177;22.262;114.192;2022-09-06T13:11:48;27.70;99.90
41435;DHT22;27177;22.262;114.192;2022-09-06T13:14:22;27.70;99.90
41435;DHT22;27177;22.262;114.192;2022-09-06T13:16:51;27.70;99.90
41435;DHT22;27177;22.262;114.192;2022-09-06T13:19:34;27.70;99.90
41435;DHT22;27177;22.262;114.192;2022-09-06T13:22:04;27.70;99.90
41435;DHT22;27177;22.262;114.192;2022-09-06T13:27:24;27.70;99.90
41435;DHT22;27177;22.262;114.192;2022-09-06T13:32:30;27.60;99.90
41435;DHT22;27177;22.262;114.192;2022-09-06T13:35:00;27.60;99.90
41435;DHT22;27177;22.262;114.192;2022-09-06T13:37:31;27.60;99.90
41435;DHT22;27177;22.262;114.192;2022-09-06T13:39:59;27.60;99.90
41435;DHT22;27177;22.262;114.192;2022-09-06T13:42:34;27.60;99.90
41435;DHT22;27177;22.262;114.192;2022-09-06T13:47:37;27.60;99.90
41435;DHT22;27177;22.262;114.192;2022-09-06T13:50:05;27.60;99.90
41435;DHT22;27177;22.262;114.192;2022-09-06T13:52:32;27.60;99.90
41435;DHT22;27177;22.262;114.192;2022-09-06T13:54:59;27.70;99.90
41435;DHT22;27177;22.262;114.192;2022-09-06T13:57:25;27.60;99.90
41435;DHT22;27177;22.262;114.192;2022-09-06T13:59:52;27.70;99.90
41435;DHT22;27177;22.262;114.192;2022-09-06T14:02:20;27.60;99.90
41435;DHT22;27177;22.262;114.192;2022-09-06T14:04:47;27.60;99.90
41435;DHT22;27177;22.262;114.192;2022-09-06T14:07:13;27.60;99.90
41435;DHT22;27177;22.262;114.192;2022-09-06T14:09:40;27.60;99.90
41435;DHT22;27177;22.262;114.192;2022-09-06T14:12:07;27.70;99.90
41435;DHT22;27177;22.262;114.192;2022-09-06T14:14:37;27.70;99.90
41435;DHT22;27177;22.262;114.192;2022-09-06T14:17:04;27.70;99.90
41435;DHT22;27177;22.262;114.192;2022-09-06T14:19:30;27.70;99.90
41435;DHT22;27177;22.262;114.192;2022-09-06T14:22:00;27.70;99.90
41435;DHT22;27177;22.262;114.192;2022-09-06T14:24:29;27.70;99.90
41435;DHT22;27177;22.262;114.192;2022-09-06T14:26:56;27.70;99.90
41435;DHT22;27177;22.262;114.192;2022-09-06T14:29:24;27.60;99.90
41435;DHT22;27177;22.262;114.192;2022-09-06T14:31:51;27.70;99.90
41435;DHT22;27177;22.262;114.192;2022-09-06T14:34:18;27.70;99.90
41435;DHT22;27177;22.262;114.192;2022-09-06T14:36:45;27.60;99.90
41435;DHT22;27177;22.262;114.192;2022-09-06T14:39:11;27.60;99.90
41435;DHT22;27177;22.262;114.192;2022-09-06T14:41:38;27.70;99.90
41435;DHT22;27177;22.262;114.192;2022-09-06T14:44:05;27.70;99.90
41435;DHT22;27177;22.262;114.192;2022-09-06T14:46:31;27.70;99.90
41435;DHT22;27177;22.262;114.192;2022-09-06T14:49:04;27.70;99.90
41435;DHT22;27177;22.262;114.192;2022-09-06T14:51:33;27.70;99.90
41435;DHT22;27177;22.262;114.192;2022-09-06T14:54:17;27.70;99.90
41435;DHT22;27177;22.262;114.192;2022-09-06T14:56:45;27.70;99.90
41435;DHT22;27177;22.262;114.192;2022-09-06T14:59:13;27.70;99.90
41435;DHT22;27177;22.262;114.192;2022-09-06T15:01:40;27.70;99.90
41435;DHT22;27177;22.262;114.192;2022-09-06T15:04:09;27.70;99.90
41435;DHT22;27177;22.262;114.192;2022-09-06T15:06:37;27.70;99.90
41435;DHT22;27177;22.262;114.192;2022-09-06T15:09:06;27.70;99.90
41435;DHT22;27177;22.262;114.192;2022-09-06T15:11:45;27.60;99.90
41435;DHT22;27177;22.262;114.192;2022-09-06T15:14:18;27.60;99.90
41435;DHT22;27177;22.262;114.192;2022-09-06T15:16:49;27.70;99.90
41435;DHT22;27177;22.262;114.192;2022-09-06T15:19:18;27.60;99.90
41435;DHT22;27177;22.262;114.192;2022-09-06T15:21:45;27.60;99.90
41435;DHT22;27177;22.262;114.192;2022-09-06T15:24:15;27.60;99.90
41435;DHT22;27177;22.262;114.192;2022-09-06T15:26:42;27.60;99.90
41435;DHT22;27177;22.262;114.192;2022-09-06T15:29:09;27.70;99.90
41435;DHT22;27177;22.262;114.192;2022-09-06T15:31:41;27.60;99.90
41435;DHT22;27177;22.262;114.192;2022-09-06T15:34:09;27.60;99.90
41435;DHT22;27177;22.262;114.192;2022-09-06T15:36:37;27.60;99.90
41435;DHT22;27177;22.262;114.192;2022-09-06T15:39:04;27.60;99.90
41435;DHT22;27177;22.262;114.192;2022-09-06T15:41:34;27.60;99.90
41435;DHT22;27177;22.262;114.192;2022-09-06T15:44:09;27.60;99.90
41435;DHT22;27177;22.262;114.192;2022-09-06T15:46:56;27.60;99.90
41435;DHT22;27177;22.262;114.192;2022-09-06T15:49:26;27.60;99.90
41435;DHT22;27177;22.262;114.192;2022-09-06T15:51:57;27.60;99.90
41435;DHT22;27177;22.262;114.192;2022-09-06T15:54:24;27.60;99.90
41435;DHT22;27177;22.262;114.192;2022-09-06T15:57:10;27.50;99.90
41435;DHT22;27177;22.262;114.192;2022-09-06T15:59:38;27.50;99.90
41435;DHT22;27177;22.262;114.192;2022-09-06T16:02:06;27.50;99.90
41435;DHT22;27177;22.262;114.192;2022-09-06T16:04:33;27.50;99.90
41435;DHT22;27177;22.262;114.192;2022-09-06T16:07:00;27.50;99.90
41435;DHT22;27177;22.262;114.192;2022-09-06T16:09:27;27.50;99.90
41435;DHT22;27177;22.262;114.192;2022-09-06T16:11:54;27.60;99.90
41435;DHT22;27177;22.262;114.192;2022-09-06T16:14:21;27.60;99.90
41435;DHT22;27177;22.262;114.192;2022-09-06T16:16:48;27.60;99.90
41435;DHT22;27177;22.262;114.192;2022-09-06T16:19:20;27.60;99.90
41435;DHT22;27177;22.262;114.192;2022-09-06T16:21:47;27.60;99.90
41435;DHT22;27177;22.262;114.192;2022-09-06T16:24:14;27.60;99.90
41435;DHT22;27177;22.262;114.192;2022-09-06T16:26:44;27.60;99.90
41435;DHT22;27177;22.262;114.192;2022-09-06T16:29:15;27.50;99.90
41435;DHT22;27177;22.262;114.192;2022-09-06T16:31:43;27.50;99.90
41435;DHT22;27177;22.262;114.192;2022-09-06T16:34:11;27.50;99.90
41435;DHT22;27177;22.262;114.192;2022-09-06T16:36:38;27.50;99.90
41435;DHT22;27177;22.262;114.192;2022-09-06T16:39:06;27.50;99.90
41435;DHT22;27177;22.262;114.192;2022-09-06T16:41:44;27.50;99.90
41435;DHT22;27177;22.262;114.192;2022-09-06T16:44:16;27.50;99.90
41435;DHT22;27177;22.262;114.192;2022-09-06T16:46:45;27.50;99.90
41435;DHT22;27177;22.262;114.192;2022-09-06T16:49:12;27.50;99.90
41435;DHT22;27177;22.262;114.192;2022-09-06T16:51:41;27.50;99.90
41435;DHT22;27177;22.262;114.192;2022-09-06T16:54:09;27.50;99.90
41435;DHT22;27177;22.262;114.192;2022-09-06T16:56:35;27.50;99.90
41435;DHT22;27177;22.262;114.192;2022-09-06T16:59:05;27.50;99.90
41435;DHT22;27177;22.262;114.192;2022-09-06T17:01:33;27.50;99.90
41435;DHT22;27177;22.262;114.192;2022-09-06T17:04:01;27.50;99.90
41435;DHT22;27177;22.262;114.192;2022-09-06T17:06:28;27.50;99.90
41435;DHT22;27177;22.262;114.192;2022-09-06T17:08:56;27.40;99.90
41435;DHT22;27177;22.262;114.192;2022-09-06T17:11:24;27.40;99.90
41435;DHT22;27177;22.262;114.192;2022-09-06T17:13:52;27.50;99.90
41435;DHT22;27177;22.262;114.192;2022-09-06T17:16:19;27.40;99.90
41435;DHT22;27177;22.262;114.192;2022-09-06T17:19:06;27.50;99.90
41435;DHT22;27177;22.262;114.192;2022-09-06T17:21:34;27.40;99.90
41435;DHT22;27177;22.262;114.192;2022-09-06T17:24:04;27.40;99.90
41435;DHT22;27177;22.262;114.192;2022-09-06T17:26:33;27.40;99.90
41435;DHT22;27177;22.262;114.192;2022-09-06T17:29:00;27.40;99.90
41435;DHT22;27177;22.262;114.192;2022-09-06T17:31:28;27.40;99.90
41435;DHT22;27177;22.262;114.192;2022-09-06T17:33:55;27.40;99.90
41435;DHT22;27177;22.262;114.192;2022-09-06T17:36:28;27.40;99.90
41435;DHT22;27177;22.262;114.192;2022-09-06T17:39:08;27.30;99.90
41435;DHT22;27177;22.262;114.192;2022-09-06T17:41:38;27.40;99.90
41435;DHT22;27177;22.262;114.192;2022-09-06T17:44:07;27.30;99.90
41435;DHT22;27177;22.262;114.192;2022-09-06T17:46:36;27.30;99.90
41435;DHT22;27177;22.262;114.192;2022-09-06T17:49:04;27.30;99.90
41435;DHT22;27177;22.262;114.192;2022-09-06T17:51:32;27.30;99.90
41435;DHT22;27177;22.262;114.192;2022-09-06T17:53:59;27.30;99.90